Time;durP1;ratioP1;P1;durP2;ratioP2;P2;SDS_P1;SDS_P2;PMS_P1;PMS_P2;Temp;Humidity;BMP_temperature;BMP_pressure;BME280_temperature;BME280_humidity;BME280_pressure;Samples;Min_cycle;Max_cycle;Signal;HPM_P1;HPM_P2
2023/10/21 00:02:23;;;;;;;2.63;1.40;;;21.80;64.60;;;;;;5100411;28;20028;-38
2023/10/21 00:04:50;;;;;;;1.90;1.47;;;21.70;63.80;;;;;;5095743;28;20024;-39
2023/10/21 00:07:16;;;;;;;1.77;1.40;;;21.80;64.00;;;;;;5087918;28;20470;-38
2023/10/21 00:09:42;;;;;;;3.17;1.70;;;21.70;63.80;;;;;;5092510;28;20287;-40
2023/10/21 00:12:09;;;;;;;2.67;1.60;;;21.70;63.90;;;;;;5093953;28;20316;-39
2023/10/21 00:14:35;;;;;;;2.00;1.35;;;21.70;63.80;;;;;;5094020;28;20043;-39
2023/10/21 00:17:01;;;;;;;2.38;1.58;;;21.70;63.80;;;;;;5093661;28;20044;-38
2023/10/21 00:19:27;;;;;;;1.60;1.40;;;21.70;63.80;;;;;;5099203;28;20031;-39
2023/10/21 00:21:53;;;;;;;1.60;1.50;;;21.70;63.80;;;;;;5093307;28;20119;-40
2023/10/21 00:24:20;;;;;;;1.92;1.45;;;21.60;63.80;;;;;;5093555;28;20112;-39
2023/10/21 00:26:49;;;;;;;2.25;1.67;;;21.60;63.80;;;;;;5086724;28;20100;-39
2023/10/21 00:29:16;;;;;;;2.65;1.80;;;21.60;63.80;;;;;;5098175;28;20032;-39
2023/10/21 00:31:43;;;;;;;2.53;1.40;;;21.60;63.80;;;;;;5090342;28;20060;-39
2023/10/21 00:34:10;;;;;;;5.10;1.77;;;21.60;63.80;;;;;;5095476;28;20043;-39
2023/10/21 00:36:36;;;;;;;2.38;1.45;;;21.60;63.80;;;;;;5086074;28;20072;-39
2023/10/21 00:39:02;;;;;;;1.67;1.57;;;21.60;63.90;;;;;;5089091;28;20039;-39
2023/10/21 00:41:29;;;;;;;2.70;1.80;;;21.60;63.90;;;;;;5087965;28;20048;-40
2023/10/21 00:43:55;;;;;;;1.63;1.40;;;21.50;63.80;;;;;;5100383;28;20288;-39
2023/10/21 00:46:26;;;;;;;1.80;1.40;;;21.60;63.90;;;;;;5096330;28;20477;-39
2023/10/21 00:48:52;;;;;;;1.85;1.23;;;21.50;64.00;;;;;;5098344;28;20035;-41
2023/10/21 00:51:19;;;;;;;2.47;1.42;;;21.50;63.90;;;;;;5108537;28;20024;-39
2023/10/21 00:53:45;;;;;;;2.45;1.60;;;21.50;64.00;;;;;;5097875;28;20072;-39
2023/10/21 00:56:11;;;;;;;3.65;1.70;;;21.50;64.00;;;;;;5106903;28;20039;-40
2023/10/21 00:58:37;;;;;;;2.83;1.60;;;21.50;64.00;;;;;;5103967;28;20034;-39
2023/10/21 01:01:08;;;;;;;4.50;1.37;;;21.50;64.00;;;;;;5100142;28;20073;-39
2023/10/21 01:03:35;;;;;;;3.45;1.83;;;21.50;64.00;;;;;;5099170;28;20032;-39
2023/10/21 01:06:01;;;;;;;2.58;1.40;;;21.50;64.00;;;;;;5102854;28;20035;-39
2023/10/21 01:08:27;;;;;;;2.13;1.52;;;21.40;64.00;;;;;;5103889;28;20084;-39
2023/10/21 01:10:54;;;;;;;2.10;1.40;;;21.40;64.00;;;;;;5101016;28;20024;-40
2023/10/21 01:13:20;;;;;;;2.15;1.50;;;21.40;64.00;;;;;;5093713;28;20111;-39
2023/10/21 01:15:46;;;;;;;3.58;1.70;;;21.40;64.10;;;;;;5099596;28;20028;-39
2023/10/21 01:18:13;;;;;;;1.70;1.20;;;21.40;64.10;;;;;;5099017;28;20100;-39
2023/10/21 01:20:42;;;;;;;;;;;21.40;64.10;;;;;;5096894;28;20036;-39
2023/10/21 01:23:08;;;;;;;2.38;1.50;;;21.40;64.20;;;;;;5101658;28;19905;-40
2023/10/21 01:25:35;;;;;;;2.35;1.20;;;21.40;64.20;;;;;;5092095;28;20140;-39
2023/10/21 01:28:01;;;;;;;1.77;1.63;;;21.30;64.10;;;;;;5105595;28;20087;-39
2023/10/21 01:30:27;;;;;;;2.72;1.45;;;21.30;64.20;;;;;;5098835;28;20028;-39
2023/10/21 01:32:53;;;;;;;2.80;1.50;;;21.30;64.20;;;;;;5096928;28;20092;-39
2023/10/21 01:35:21;;;;;;;2.20;1.60;;;21.30;64.20;;;;;;5103289;28;20839;-40
2023/10/21 01:37:47;;;;;;;1.80;1.30;;;21.30;64.30;;;;;;5097839;28;20030;-39
2023/10/21 01:40:13;;;;;;;3.22;1.40;;;21.30;64.30;;;;;;5090530;28;20029;-39
2023/10/21 01:42:40;;;;;;;2.83;1.58;;;21.30;64.30;;;;;;5105128;28;20076;-39
2023/10/21 01:45:07;;;;;;;3.13;1.40;;;21.20;64.30;;;;;;5093915;28;20090;-39
2023/10/21 01:47:34;;;;;;;1.98;1.35;;;21.20;64.30;;;;;;5098415;28;20040;-39
2023/10/21 01:50:00;;;;;;;2.10;1.50;;;21.20;64.30;;;;;;5092425;28;20028;-39
2023/10/21 01:52:26;;;;;;;1.73;1.40;;;21.20;64.40;;;;;;5096903;28;20039;-39
2023/10/21 01:54:55;;;;;;;1.75;1.50;;;21.20;64.40;;;;;;5098362;28;20468;-39
2023/10/21 01:57:21;;;;;;;1.90;1.38;;;21.20;64.40;;;;;;5092581;28;20036;-39
2023/10/21 01:59:48;;;;;;;1.98;1.50;;;21.10;64.40;;;;;;5095912;28;20028;-39
2023/10/21 02:02:14;;;;;;;3.38;1.45;;;21.10;64.50;;;;;;5093421;28;20060;-39
2023/10/21 02:04:40;;;;;;;4.45;1.70;;;21.10;64.50;;;;;;5098213;28;20024;-39
2023/10/21 02:07:06;;;;;;;1.73;1.23;;;21.10;64.50;;;;;;5095541;28;20059;-39
2023/10/21 02:09:32;;;;;;;2.17;1.60;;;21.10;64.50;;;;;;5099418;28;20512;-39
2023/10/21 02:11:58;;;;;;;2.30;1.50;;;21.10;64.60;;;;;;5098328;28;20028;-39
2023/10/21 02:14:24;;;;;;;2.10;1.60;;;21.00;64.50;;;;;;5095053;28;20785;-40
2023/10/21 02:16:52;;;;;;;2.97;1.80;;;21.00;64.50;;;;;;5093248;28;20094;-39
2023/10/21 02:19:18;;;;;;;1.67;1.52;;;21.00;64.60;;;;;;5098387;28;20092;-39
2023/10/21 02:21:44;;;;;;;2.20;1.38;;;21.00;64.60;;;;;;5086900;28;20024;-39
2023/10/21 02:24:10;;;;;;;2.28;1.45;;;21.00;64.70;;;;;;5090681;28;20100;-40
2023/10/21 02:26:36;;;;;;;3.75;1.40;;;21.00;64.60;;;;;;5094777;28;20028;-40
2023/10/21 02:29:03;;;;;;;2.53;1.40;;;21.00;64.70;;;;;;5093951;28;20038;-40
2023/10/21 02:31:30;;;;;;;3.13;1.38;;;20.90;64.60;;;;;;5087907;28;20039;-40
2023/10/21 02:33:56;;;;;;;1.85;1.60;;;20.90;64.70;;;;;;5092744;28;20053;-40
2023/10/21 02:36:22;;;;;;;1.70;1.50;;;20.90;64.60;;;;;;5095923;28;20051;-40
2023/10/21 02:38:51;;;;;;;2.47;1.52;;;20.90;64.70;;;;;;5092768;28;20020;-40
2023/10/21 02:41:17;;;;;;;1.60;1.30;;;20.90;64.70;;;;;;5101944;28;20135;-40
2023/10/21 02:43:43;;;;;;;2.38;1.42;;;20.90;64.80;;;;;;5093967;28;20031;-40
2023/10/21 02:46:10;;;;;;;2.15;1.50;;;20.90;64.80;;;;;;5095930;28;20032;-40
2023/10/21 02:48:36;;;;;;;4.57;1.73;;;20.90;64.80;;;;;;5100002;28;20135;-40
2023/10/21 02:51:28;;;;;;;2.70;1.60;;;20.80;64.90;;;;;;5088096;28;20115;-40
2023/10/21 02:53:55;;;;;;;1.85;1.58;;;20.80;64.90;;;;;;5097352;28;20031;-40
2023/10/21 02:56:21;;;;;;;2.42;1.45;;;20.80;64.80;;;;;;5102508;28;20083;-40
2023/10/21 02:58:47;;;;;;;3.67;1.75;;;20.80;64.90;;;;;;5090485;28;20024;-40
2023/10/21 03:01:15;;;;;;;2.33;1.58;;;20.80;64.90;;;;;;5091354;28;20036;-40
2023/10/21 03:03:42;;;;;;;2.10;1.33;;;20.80;65.00;;;;;;5087072;28;20016;-40
2023/10/21 03:06:08;;;;;;;2.85;1.20;;;20.70;65.00;;;;;;5091210;28;20035;-40
2023/10/21 03:08:36;;;;;;;4.22;1.70;;;20.70;64.90;;;;;;5091714;28;20032;-40
2023/10/21 03:11:03;;;;;;;1.75;1.40;;;20.70;65.00;;;;;;5095028;28;20048;-40
2023/10/21 03:13:31;;;;;;;5.32;1.77;;;20.70;65.00;;;;;;5093767;28;20028;-40
2023/10/21 03:15:57;;;;;;;4.00;1.45;;;20.70;65.00;;;;;;5086800;28;20092;-40
2023/10/21 03:18:23;;;;;;;4.80;1.52;;;20.70;65.00;;;;;;5100194;28;20051;-40
2023/10/21 03:20:50;;;;;;;2.70;1.40;;;20.70;65.10;;;;;;5097821;28;20028;-40
2023/10/21 03:23:16;;;;;;;;;;;20.70;65.10;;;;;;5092574;28;20111;-40
2023/10/21 03:25:42;;;;;;;3.30;1.38;;;20.60;65.10;;;;;;5092454;28;19963;-40
2023/10/21 03:28:09;;;;;;;5.18;1.70;;;20.60;65.10;;;;;;5096431;28;20021;-40
2023/10/21 03:30:35;;;;;;;2.75;1.30;;;20.60;65.30;;;;;;5093832;28;20039;-40
2023/10/21 03:33:02;;;;;;;1.58;1.10;;;20.60;65.20;;;;;;5090085;28;20035;-40
2023/10/21 03:35:28;;;;;;;3.15;1.45;;;20.60;65.20;;;;;;5097305;28;20039;-40
2023/10/21 03:37:54;;;;;;;2.08;1.55;;;20.60;65.20;;;;;;5090392;28;20032;-39
2023/10/21 03:40:20;;;;;;;2.28;1.50;;;20.60;65.20;;;;;;5084808;28;20059;-39
2023/10/21 03:42:47;;;;;;;3.55;1.65;;;20.50;65.10;;;;;;5091380;28;20055;-39
2023/10/21 03:45:13;;;;;;;3.22;1.38;;;20.50;65.20;;;;;;5093152;28;20092;-40
2023/10/21 03:47:39;;;;;;;3.70;1.40;;;20.50;65.30;;;;;;5101449;28;20043;-39
2023/10/21 03:50:06;;;;;;;3.07;1.40;;;20.50;65.30;;;;;;5095727;28;20042;-40
2023/10/21 03:52:32;;;;;;;1.95;1.40;;;20.50;65.30;;;;;;5100098;28;20107;-41
2023/10/21 03:54:59;;;;;;;2.05;1.40;;;20.50;65.30;;;;;;5097642;28;20032;-40
2023/10/21 03:57:25;;;;;;;2.08;1.45;;;20.40;65.30;;;;;;5093460;28;20036;-40
2023/10/21 03:59:51;;;;;;;2.10;1.60;;;20.40;65.30;;;;;;5093582;28;20086;-39
2023/10/21 04:02:17;;;;;;;2.35;1.60;;;20.40;65.30;;;;;;5091831;28;20088;-40
2023/10/21 04:04:43;;;;;;;2.03;1.23;;;20.40;65.30;;;;;;5094336;28;20051;-40
2023/10/21 04:07:09;;;;;;;2.00;1.30;;;20.40;65.30;;;;;;5101876;28;20024;-40
2023/10/21 04:09:36;;;;;;;1.95;1.33;;;20.40;65.40;;;;;;5098519;28;20117;-40
2023/10/21 04:12:02;;;;;;;1.70;1.30;;;20.30;65.40;;;;;;5096923;28;20024;-40
2023/10/21 04:14:29;;;;;;;2.57;1.40;;;20.30;66.10;;;;;;5090197;28;20498;-39
2023/10/21 04:16:55;;;;;;;2.00;1.42;;;20.30;65.40;;;;;;5094022;28;20123;-38
2023/10/21 04:19:21;;;;;;;2.13;1.55;;;20.30;65.40;;;;;;5093787;28;20028;-39
2023/10/21 04:21:47;;;;;;;1.65;1.35;;;20.30;65.50;;;;;;5100842;28;20055;-40
2023/10/21 04:24:15;;;;;;;2.58;1.52;;;20.30;65.50;;;;;;5094367;28;20032;-39
2023/10/21 04:26:41;;;;;;;3.65;1.50;;;20.30;65.50;;;;;;5096564;28;20032;-39
2023/10/21 04:29:08;;;;;;;2.13;1.40;;;20.20;65.50;;;;;;5089706;28;20025;-39
2023/10/21 04:31:39;;;;;;;2.65;1.42;;;20.20;65.50;;;;;;5094964;28;20196;-39
2023/10/21 04:34:05;;;;;;;2.45;1.40;;;20.20;65.50;;;;;;5091028;28;20032;-39
2023/10/21 04:36:31;;;;;;;1.88;1.33;;;20.20;65.50;;;;;;5098703;28;20043;-39
2023/10/21 04:38:57;;;;;;;2.30;1.40;;;20.20;65.50;;;;;;5090778;28;20346;-39
2023/10/21 04:41:23;;;;;;;1.73;1.60;;;20.20;65.50;;;;;;5097248;28;20036;-39
2023/10/21 04:43:50;;;;;;;3.72;1.30;;;20.20;65.50;;;;;;5093269;28;20396;-40
2023/10/21 04:46:17;;;;;;;1.38;1.25;;;20.20;65.50;;;;;;5095025;28;20032;-40
2023/10/21 04:48:44;;;;;;;3.20;1.35;;;20.10;65.40;;;;;;5093264;28;20067;-39
2023/10/21 04:51:10;;;;;;;3.45;1.42;;;20.10;65.50;;;;;;5095090;28;20749;-40
2023/10/21 04:53:37;;;;;;;2.90;1.40;;;20.10;65.50;;;;;;5084258;28;20040;-40
2023/10/21 04:56:03;;;;;;;2.33;1.40;;;20.10;65.50;;;;;;5100418;28;20035;-40
2023/10/21 04:58:29;;;;;;;2.90;1.63;;;20.10;65.50;;;;;;5092388;28;20133;-40
2023/10/21 05:00:56;;;;;;;1.92;1.50;;;20.10;65.50;;;;;;5089723;28;20031;-39
2023/10/21 05:03:22;;;;;;;2.10;1.48;;;20.00;65.50;;;;;;5091228;28;20043;-39
2023/10/21 05:05:48;;;;;;;1.80;1.23;;;20.00;65.60;;;;;;5100194;28;20035;-39
2023/10/21 05:08:14;;;;;;;3.30;1.63;;;20.00;65.60;;;;;;5093905;28;20020;-39
2023/10/21 05:10:40;;;;;;;2.88;1.83;;;20.00;65.60;;;;;;5090938;28;20028;-40
2023/10/21 05:13:06;;;;;;;2.13;1.30;;;20.00;65.60;;;;;;5095145;28;20028;-40
2023/10/21 05:15:33;;;;;;;2.17;1.50;;;20.00;65.60;;;;;;5097309;28;20085;-40
2023/10/21 05:17:59;;;;;;;2.85;1.73;;;20.00;65.70;;;;;;5101395;28;20032;-40
2023/10/21 05:20:25;;;;;;;2.50;1.80;;;19.90;65.60;;;;;;5092864;28;20028;-39
2023/10/21 05:22:51;;;;;;;1.73;1.50;;;19.90;65.70;;;;;;5101105;28;20107;-40
2023/10/21 05:25:17;;;;;;;2.47;1.50;;;19.90;65.70;;;;;;5095703;28;20100;-39
2023/10/21 05:27:43;;;;;;;2.63;1.52;;;19.90;65.70;;;;;;5096146;28;20044;-39
2023/10/21 05:30:12;;;;;;;4.90;1.90;;;19.90;65.70;;;;;;5097480;28;20074;-39
2023/10/21 05:32:38;;;;;;;3.78;1.77;;;19.90;65.80;;;;;;5102381;28;20035;-39
2023/10/21 05:35:08;;;;;;;4.00;1.92;;;19.90;65.80;;;;;;5099466;28;20682;-40
2023/10/21 05:37:35;;;;;;;2.85;1.55;;;19.90;65.90;;;;;;5104082;28;20070;-40
2023/10/21 05:40:05;;;;;;;3.28;1.70;;;19.90;66.30;;;;;;5097069;28;20631;-40
2023/10/21 05:42:32;;;;;;;1.90;1.55;;;19.90;66.40;;;;;;5095646;28;20096;-39
2023/10/21 05:44:59;;;;;;;3.05;1.60;;;19.90;66.30;;;;;;5104578;28;20404;-38
2023/10/21 05:47:26;;;;;;;2.47;2.00;;;20.00;66.30;;;;;;5096694;28;20043;-39
2023/10/21 05:49:53;;;;;;;4.63;2.00;;;19.90;66.20;;;;;;5102672;28;20564;-40
2023/10/21 05:52:19;;;;;;;;;;;19.90;66.40;;;;;;5096104;28;20042;-39
2023/10/21 05:54:45;;;;;;;3.80;1.60;;;19.90;66.40;;;;;;5103700;28;19973;-39
2023/10/21 05:57:11;;;;;;;3.25;2.00;;;19.80;66.30;;;;;;5096900;28;20036;-39
2023/10/21 05:59:38;;;;;;;2.58;1.98;;;19.80;66.30;;;;;;5100223;28;20035;-39
2023/10/21 06:02:04;;;;;;;2.80;1.88;;;19.90;66.60;;;;;;5101994;28;20749;-39
2023/10/21 06:04:31;;;;;;;3.20;2.35;;;19.90;66.80;;;;;;5096635;28;20037;-39
2023/10/21 06:06:57;;;;;;;4.32;2.45;;;19.90;66.70;;;;;;5104676;28;20189;-40
2023/10/21 06:09:23;;;;;;;3.80;2.00;;;19.90;66.60;;;;;;5104731;28;20055;-39
2023/10/21 06:11:53;;;;;;;3.08;2.28;;;19.90;66.50;;;;;;5102337;28;20034;-39
2023/10/21 06:14:19;;;;;;;3.40;2.50;;;19.90;66.60;;;;;;5099444;28;20032;-39
2023/10/21 06:16:45;;;;;;;2.83;2.35;;;19.90;66.60;;;;;;5094024;28;20036;-40
2023/10/21 06:19:11;;;;;;;3.47;2.40;;;19.80;66.50;;;;;;5093437;28;20032;-39
2023/10/21 06:21:38;;;;;;;4.00;2.63;;;19.80;66.50;;;;;;5101009;28;20071;-40
2023/10/21 06:24:04;;;;;;;6.07;2.53;;;19.80;66.50;;;;;;5090561;28;20094;-40
2023/10/21 06:26:33;;;;;;;4.10;2.50;;;19.80;66.60;;;;;;5095563;28;20036;-40
2023/10/21 06:29:00;;;;;;;3.78;2.60;;;19.90;67.00;;;;;;5097401;28;20463;-40
2023/10/21 06:31:26;;;;;;;4.23;2.50;;;20.00;67.00;;;;;;5099984;28;20528;-40
2023/10/21 06:33:56;;;;;;;4.05;2.70;;;19.90;66.70;;;;;;5097250;28;20035;-40
2023/10/21 06:36:22;;;;;;;5.35;2.80;;;19.90;66.70;;;;;;5099810;28;20051;-40
2023/10/21 06:38:49;;;;;;;4.55;3.00;;;19.90;66.70;;;;;;5100169;28;20081;-40
2023/10/21 06:41:16;;;;;;;4.43;2.67;;;19.90;66.80;;;;;;5097764;28;20031;-41
2023/10/21 06:43:42;;;;;;;3.58;2.50;;;19.90;66.80;;;;;;5097594;28;20032;-40
2023/10/21 06:46:08;;;;;;;5.00;3.15;;;19.80;66.70;;;;;;5102844;28;20042;-39
2023/10/21 06:48:34;;;;;;;3.17;2.28;;;19.80;66.70;;;;;;5102307;28;20038;-40
2023/10/21 06:51:01;;;;;;;3.90;2.50;;;19.90;67.00;;;;;;5098347;28;20024;-40
2023/10/21 06:53:27;;;;;;;3.65;2.55;;;19.90;67.10;;;;;;5100235;28;20024;-38
2023/10/21 06:55:53;;;;;;;3.80;2.45;;;20.00;66.90;;;;;;5094515;28;20028;-40
2023/10/21 06:58:22;;;;;;;3.25;2.20;;;20.00;66.80;;;;;;5099715;28;20039;-40
2023/10/21 07:00:48;;;;;;;4.72;2.53;;;19.90;66.80;;;;;;5107854;28;20025;-40
2023/10/21 07:03:14;;;;;;;3.87;2.30;;;19.90;66.80;;;;;;5085627;28;20025;-40
2023/10/21 07:05:41;;;;;;;3.22;2.42;;;19.90;66.80;;;;;;5089567;28;20032;-39
2023/10/21 07:08:07;;;;;;;4.88;2.53;;;19.90;66.80;;;;;;5102943;28;20032;-39
2023/10/21 07:10:33;;;;;;;4.78;2.30;;;19.80;66.70;;;;;;5101177;28;20028;-40
2023/10/21 07:12:59;;;;;;;5.67;1.90;;;19.80;66.70;;;;;;5098480;28;20031;-40
2023/10/21 07:15:29;;;;;;;2.78;2.15;;;19.90;67.00;;;;;;5100577;28;20053;-41
2023/10/21 07:17:57;;;;;;;3.17;1.90;;;19.90;67.00;;;;;;5088537;28;20027;-40
2023/10/21 07:20:25;;;;;;;3.03;2.15;;;19.90;66.90;;;;;;5087676;28;20021;-40
2023/10/21 07:22:53;;;;;;;2.42;1.80;;;19.90;66.90;;;;;;5087317;28;20058;-39
2023/10/21 07:25:19;;;;;;;3.20;2.03;;;19.90;66.90;;;;;;5096300;28;20066;-40
2023/10/21 07:27:49;;;;;;;2.58;2.20;;;19.90;66.90;;;;;;5094412;28;20052;-40
2023/10/21 07:30:15;;;;;;;2.78;1.85;;;19.90;66.80;;;;;;5094876;28;20115;-40
2023/10/21 07:32:41;;;;;;;2.42;2.03;;;19.80;67.60;;;;;;5090259;28;20113;-39
2023/10/21 07:35:07;;;;;;;2.17;1.80;;;19.80;66.80;;;;;;5091741;28;20505;-40
2023/10/21 07:37:34;;;;;;;2.65;1.63;;;19.90;67.10;;;;;;5089755;28;20119;-40
2023/10/21 07:40:00;;;;;;;2.75;1.70;;;19.90;67.00;;;;;;5091048;28;20111;-39
2023/10/21 07:42:26;;;;;;;2.83;1.70;;;19.90;66.90;;;;;;5091046;28;20469;-39
2023/10/21 07:44:53;;;;;;;2.53;1.70;;;19.90;66.90;;;;;;5087020;28;20031;-40
2023/10/21 07:47:20;;;;;;;2.13;1.50;;;19.90;66.90;;;;;;5091267;28;20036;-40
2023/10/21 07:49:47;;;;;;;2.08;1.73;;;19.90;66.80;;;;;;5099001;28;20036;-40
2023/10/21 07:52:13;;;;;;;2.05;1.48;;;19.90;66.80;;;;;;5088671;28;20047;-40
2023/10/21 07:54:40;;;;;;;1.90;1.45;;;19.80;66.90;;;;;;5090172;28;21500;-40
2023/10/21 07:57:06;;;;;;;1.73;1.30;;;19.90;67.10;;;;;;5085105;28;20048;-40
2023/10/21 07:59:32;;;;;;;1.77;1.33;;;20.00;67.20;;;;;;5097680;28;20077;-40
2023/10/21 08:01:58;;;;;;;1.67;1.20;;;20.00;67.00;;;;;;5087428;28;20094;-40
2023/10/21 08:04:24;;;;;;;1.50;1.20;;;19.90;66.90;;;;;;5090985;28;20028;-39
2023/10/21 08:06:50;;;;;;;1.92;1.35;;;19.90;66.90;;;;;;5097499;28;20040;-39
2023/10/21 08:09:17;;;;;;;2.13;1.30;;;19.90;66.90;;;;;;5101010;28;20020;-39
2023/10/21 08:11:43;;;;;;;2.25;1.30;;;19.90;66.90;;;;;;5091486;28;20028;-40
2023/10/21 08:14:10;;;;;;;1.60;1.40;;;19.90;66.90;;;;;;5088998;28;20063;-40
2023/10/21 08:16:36;;;;;;;1.77;1.25;;;19.80;66.90;;;;;;5092389;28;20036;-40
2023/10/21 08:19:04;;;;;;;1.92;1.13;;;19.90;67.20;;;;;;5101866;28;20035;-41
2023/10/21 08:21:31;;;;;;;2.97;1.40;;;20.00;67.20;;;;;;5100788;28;20040;-39
2023/10/21 08:23:59;;;;;;;1.80;1.20;;;19.90;67.00;;;;;;5093220;28;20042;-41
2023/10/21 08:26:25;;;;;;;1.95;1.20;;;19.90;66.90;;;;;;5093871;28;20053;-40
2023/10/21 08:28:51;;;;;;;1.55;1.00;;;19.90;66.90;;;;;;5096886;28;20055;-40
2023/10/21 08:31:17;;;;;;;1.15;1.00;;;19.90;66.90;;;;;;5085073;28;20028;-40
2023/10/21 08:33:46;;;;;;;1.50;1.20;;;19.90;67.00;;;;;;5099268;28;20502;-40
2023/10/21 08:36:18;;;;;;;2.30;1.20;;;19.80;66.90;;;;;;5091344;28;20042;-39
2023/10/21 08:38:45;;;;;;;1.20;0.77;;;19.90;67.10;;;;;;5091300;28;20023;-39
2023/10/21 08:41:11;;;;;;;;;;;20.00;67.30;;;;;;5096883;28;20028;-40
2023/10/21 08:43:38;;;;;;;2.47;1.08;;;20.00;67.10;;;;;;5094612;28;19920;-39
2023/10/21 08:46:07;;;;;;;0.95;0.90;;;19.90;67.00;;;;;;5094777;28;20130;-40
2023/10/21 08:48:33;;;;;;;1.55;0.90;;;19.90;67.00;;;;;;5099693;28;20027;-39
2023/10/21 08:51:00;;;;;;;0.80;0.70;;;19.90;67.00;;;;;;5101511;28;20118;-40
2023/10/21 08:53:26;;;;;;;1.67;1.00;;;19.90;67.00;;;;;;5093565;28;20284;-40
2023/10/21 08:55:52;;;;;;;1.02;0.93;;;19.80;66.90;;;;;;5089535;28;20036;-39
2023/10/21 08:58:20;;;;;;;1.65;0.95;;;19.90;67.10;;;;;;5090497;28;20036;-39
2023/10/21 09:00:46;;;;;;;0.93;0.80;;;19.90;67.20;;;;;;5089095;28;20062;-39
2023/10/21 09:03:14;;;;;;;1.58;0.90;;;20.00;67.00;;;;;;5098288;28;20104;-39
2023/10/21 09:06:04;;;;;;;0.95;0.70;;;20.00;66.90;;;;;;5102079;28;21670;-40
2023/10/21 09:08:37;;;;;;;1.02;0.73;;;19.90;66.90;;;;;;5095532;28;20037;-40
2023/10/21 09:11:06;;;;;;;2.08;0.88;;;19.90;67.00;;;;;;5100613;28;20028;-40
2023/10/21 09:13:42;;;;;;;1.00;0.80;;;19.90;66.90;;;;;;5100100;28;20469;-40
2023/10/21 09:16:21;;;;;;;0.90;0.80;;;19.80;67.60;;;;;;5087774;28;20040;-40
2023/10/21 09:19:01;;;;;;;1.58;0.98;;;19.90;67.00;;;;;;5097142;28;20044;-40
2023/10/21 09:21:36;;;;;;;2.05;0.90;;;20.00;67.10;;;;;;5088532;28;20080;-40
2023/10/21 09:24:10;;;;;;;1.08;0.88;;;20.00;66.90;;;;;;5096262;28;20024;-40
2023/10/21 09:26:45;;;;;;;2.55;0.60;;;19.90;66.90;;;;;;5102816;28;20433;-40
2023/10/21 09:29:12;;;;;;;1.08;0.75;;;20.00;66.90;;;;;;5101834;28;20036;-40
2023/10/21 09:31:42;;;;;;;1.35;0.80;;;19.90;66.90;;;;;;5093818;28;20016;-40
2023/10/21 09:34:09;;;;;;;0.88;0.82;;;19.90;66.90;;;;;;5099229;28;20381;-40
2023/10/21 09:36:41;;;;;;;0.50;0.50;;;19.80;67.60;;;;;;5103385;28;20051;-40
2023/10/21 09:39:08;;;;;;;1.23;0.70;;;20.00;67.20;;;;;;5093648;28;20033;-40
2023/10/21 09:41:34;;;;;;;0.90;0.52;;;20.00;67.00;;;;;;5102809;28;20071;-40
2023/10/21 09:44:00;;;;;;;0.93;0.70;;;20.00;67.60;;;;;;5104590;28;20057;-40
2023/10/21 09:46:47;;;;;;;1.15;0.60;;;19.90;66.90;;;;;;5047598;28;20033;-39
2023/10/21 09:49:14;;;;;;;0.73;0.70;;;19.90;66.80;;;;;;5061834;28;20072;-40
2023/10/21 09:51:50;;;;;;;0.70;0.60;;;19.90;66.90;;;;;;5062443;28;20087;-40
2023/10/21 09:54:19;;;;;;;0.50;0.50;;;19.90;66.90;;;;;;5061785;28;20051;-40
2023/10/21 09:56:45;;;;;;;1.48;0.80;;;19.80;66.80;;;;;;5062302;28;20068;-39
2023/10/21 09:59:12;;;;;;;0.60;0.60;;;19.80;66.80;;;;;;5062567;28;20036;-40
2023/10/21 10:01:39;;;;;;;1.00;0.60;;;19.90;67.10;;;;;;5061717;28;20040;-40
2023/10/21 10:04:09;;;;;;;0.60;0.60;;;20.00;67.10;;;;;;5062329;28;20029;-39
2023/10/21 10:06:39;;;;;;;0.70;0.55;;;20.00;66.90;;;;;;5061950;28;20035;-40
2023/10/21 10:09:06;;;;;;;0.90;0.60;;;20.00;66.90;;;;;;5057942;28;20021;-40
2023/10/21 10:11:34;;;;;;;0.60;0.60;;;19.90;66.80;;;;;;5060463;28;20040;-40
2023/10/21 10:14:01;;;;;;;0.60;0.55;;;19.90;66.90;;;;;;5062084;28;20025;-40
2023/10/21 10:16:28;;;;;;;1.05;0.77;;;19.90;66.90;;;;;;5058031;28;20037;-40
2023/10/21 10:18:57;;;;;;;0.93;0.80;;;19.80;66.80;;;;;;5058071;28;20024;-39
2023/10/21 10:21:23;;;;;;;0.60;0.43;;;19.90;67.10;;;;;;5061994;28;20133;-40
2023/10/21 10:23:50;;;;;;;0.75;0.60;;;20.00;67.00;;;;;;5080001;28;20115;-39
2023/10/21 10:26:32;;;;;;;1.05;0.70;;;20.00;66.90;;;;;;5098335;28;20036;-40
2023/10/21 10:29:01;;;;;;;0.80;0.60;;;20.00;66.90;;;;;;5091521;28;20125;-40
2023/10/21 10:31:31;;;;;;;0.50;0.50;;;20.00;66.90;;;;;;5086599;28;20029;-40
2023/10/21 10:33:57;;;;;;;1.98;0.60;;;19.90;66.90;;;;;;5093051;28;20025;-40
2023/10/21 10:36:28;;;;;;;0.60;0.50;;;19.80;66.80;;;;;;5092133;28;20094;-39
2023/10/21 10:38:54;;;;;;;0.95;0.65;;;19.80;66.80;;;;;;5096428;28;20088;-39
2023/10/21 10:41:21;;;;;;;1.00;0.60;;;19.90;67.10;;;;;;5102819;28;20040;-39
2023/10/21 10:43:54;;;;;;;1.52;0.60;;;20.00;67.00;;;;;;5097163;28;20029;-39
2023/10/21 10:46:21;;;;;;;0.43;0.40;;;20.00;67.00;;;;;;5101800;28;20055;-39
2023/10/21 10:48:48;;;;;;;0.82;0.70;;;19.90;66.90;;;;;;5101805;28;20810;-39
2023/10/21 10:51:27;;;;;;;1.90;0.60;;;19.90;67.00;;;;;;5099492;28;20029;-40
2023/10/21 10:53:57;;;;;;;0.88;0.65;;;19.90;67.00;;;;;;5101928;28;20031;-39
2023/10/21 10:56:39;;;;;;;0.80;0.60;;;19.90;67.00;;;;;;5098876;28;20044;-39
2023/10/21 10:59:05;;;;;;;1.35;0.63;;;19.80;67.00;;;;;;5091914;28;20085;-40
2023/10/21 11:01:31;;;;;;;1.23;0.60;;;19.80;67.00;;;;;;5089474;28;20094;-40
2023/10/21 11:03:59;;;;;;;1.05;0.70;;;19.80;67.00;;;;;;5092042;28;20036;-41
2023/10/21 11:06:35;;;;;;;;;;;19.70;66.90;;;;;;5100913;28;20059;-40
2023/10/21 11:09:01;;;;;;;0.75;0.50;;;19.80;67.20;;;;;;5095535;28;20011;-40
2023/10/21 11:11:27;;;;;;;1.20;0.60;;;19.90;67.20;;;;;;5100054;28;20039;-40
2023/10/21 11:13:55;;;;;;;0.70;0.52;;;19.90;67.00;;;;;;5095917;28;20031;-40
2023/10/21 11:16:21;;;;;;;0.93;0.70;;;19.90;67.00;;;;;;5102355;28;20028;-40
2023/10/21 11:18:48;;;;;;;0.80;0.60;;;19.90;67.00;;;;;;5093379;28;20023;-40
2023/10/21 11:21:14;;;;;;;;;;;19.80;67.00;;;;;;5097539;28;20028;-40
2023/10/21 11:23:40;;;;;;;0.80;0.70;;;19.80;67.00;;;;;;5092922;28;21981;-40
2023/10/21 11:26:09;;;;;;;1.05;0.80;;;19.80;67.00;;;;;;5095095;28;20043;-40
2023/10/21 11:28:36;;;;;;;0.70;0.60;;;19.80;67.00;;;;;;5087133;28;20024;-40
2023/10/21 11:31:02;;;;;;;0.98;0.70;;;19.70;67.00;;;;;;5097723;28;20032;-40
2023/10/21 11:33:28;;;;;;;0.70;0.60;;;19.80;67.20;;;;;;5091860;28;20096;-39
2023/10/21 11:35:56;;;;;;;0.63;0.40;;;19.90;67.10;;;;;;5095479;28;20031;-40
2023/10/21 11:38:22;;;;;;;0.85;0.60;;;19.90;67.00;;;;;;5092930;28;20767;-39
2023/10/21 11:40:48;;;;;;;0.52;0.52;;;19.80;66.90;;;;;;5094236;28;20028;-39
2023/10/21 11:43:17;;;;;;;0.68;0.50;;;19.80;67.00;;;;;;5097469;28;20060;-40
2023/10/21 11:45:44;;;;;;;0.60;0.50;;;19.80;67.00;;;;;;5099021;28;20033;-39
2023/10/21 11:48:10;;;;;;;1.13;0.65;;;19.80;67.00;;;;;;5090710;28;20091;-39
2023/10/21 11:50:43;;;;;;;0.52;0.40;;;19.70;66.90;;;;;;5101266;28;20028;-39
2023/10/21 11:53:10;;;;;;;0.93;0.68;;;19.70;67.00;;;;;;5096723;28;20049;-40
2023/10/21 12:15:06;;;;;;;0.77;0.60;;;19.70;66.90;;;;;;5071733;28;20043;-40
2023/10/21 12:23:33;;;;;;;0.60;0.60;;;19.80;66.90;;;;;;5062332;28;20136;-40
2023/10/21 12:39:37;;;;;;;0.80;0.60;;;19.70;67.00;;;;;;5101544;28;20051;-40
2023/10/21 12:42:21;;;;;;;0.95;0.60;;;19.80;66.90;;;;;;5091063;28;20047;-40
2023/10/21 12:44:52;;;;;;;0.73;0.60;;;19.80;66.90;;;;;;5094530;28;20092;-40
2023/10/21 12:47:18;;;;;;;0.50;0.50;;;19.80;66.90;;;;;;5098830;28;20036;-40
2023/10/21 12:49:47;;;;;;;0.82;0.52;;;19.70;66.90;;;;;;5099206;28;20036;-40
2023/10/21 12:52:13;;;;;;;0.70;0.55;;;19.70;66.80;;;;;;5097366;28;20063;-40
2023/10/21 12:54:39;;;;;;;0.82;0.60;;;19.70;66.90;;;;;;5100540;28;20056;-40
2023/10/21 12:57:08;;;;;;;0.60;0.43;;;19.70;67.00;;;;;;5084596;28;20048;-40
2023/10/21 12:59:34;;;;;;;0.93;0.60;;;19.80;67.00;;;;;;5090363;28;20032;-40
2023/10/21 13:02:00;;;;;;;0.60;0.50;;;19.80;66.80;;;;;;5097387;28;20058;-40
2023/10/21 13:04:26;;;;;;;0.60;0.57;;;19.80;66.80;;;;;;5094388;28;20405;-40
2023/10/21 13:06:53;;;;;;;1.77;0.50;;;19.80;66.80;;;;;;5098817;28;20087;-40
2023/10/21 13:09:28;;;;;;;1.65;0.40;;;19.70;66.70;;;;;;5092073;28;20028;-40
2023/10/21 13:11:54;;;;;;;0.43;0.43;;;19.70;66.70;;;;;;5084989;28;20048;-40
2023/10/21 13:14:25;;;;;;;0.98;0.60;;;19.70;66.80;;;;;;5084722;28;20044;-40
2023/10/21 13:16:52;;;;;;;0.63;0.50;;;19.80;67.00;;;;;;5096876;28;20040;-40
2023/10/21 13:19:18;;;;;;;;;;;19.80;67.00;;;;;;5097300;28;20017;-40
2023/10/21 13:21:44;;;;;;;1.48;0.40;;;19.80;66.80;;;;;;5095683;28;19963;-41
2023/10/21 13:24:10;;;;;;;0.68;0.50;;;19.80;66.80;;;;;;5089724;28;20689;-40
2023/10/21 13:26:37;;;;;;;0.70;0.60;;;19.80;66.80;;;;;;5096079;28;20032;-41
2023/10/21 13:29:04;;;;;;;0.75;0.57;;;19.70;67.50;;;;;;5098826;28;20030;-40